K32 EFHA-EFJY
Flight info
| Callsign | K32 |
|---|---|
| Flight time | 1h 42m |
| Altitude | 2000 |
| Route | TC HIRLE PARKANO VIRRAT KEURUU RUOKE |
| Aircraft | G115/L-SDGR/C |
Departure
| Time | 2026-05-04 12:51 |
|---|---|
| Airport | Halli Airport (EFHA) |
Arrival
| Time | 2026-05-04 14:34 |
|---|---|
| Airport | Jyväskylä Airport (EFJY) |
| Time | Latitude | Longitude | Altitude | Speed | Heading |
|---|---|---|---|---|---|
| 2026-05-04 12:45 | 61.85853 | 24.81629 | 488 ft | 0 kts | 270° |
| 2026-05-04 12:48 | 61.85851 | 24.81601 | 488 ft | 5 kts | 258° |
| 2026-05-04 12:48 | 61.85798 | 24.81507 | 487 ft | 14 kts | 215° |
| 2026-05-04 12:49 | 61.85703 | 24.81348 | 488 ft | 21 kts | 256° |
| 2026-05-04 12:49 | 61.85689 | 24.81076 | 489 ft | 16 kts | 253° |
| 2026-05-04 12:49 | 61.85668 | 24.80746 | 486 ft | 42 kts | 265° |
| 2026-05-04 12:49 | 61.85643 | 24.79899 | 569 ft | 64 kts | 262° |
| 2026-05-04 12:50 | 61.85627 | 24.78876 | 658 ft | 78 kts | 264° |
| 2026-05-04 12:50 | 61.85587 | 24.77657 | 770 ft | 83 kts | 262° |
| 2026-05-04 12:50 | 61.85573 | 24.76429 | 755 ft | 86 kts | 266° |
| 2026-05-04 12:50 | 61.85357 | 24.75455 | 900 ft | 74 kts | 212° |
| 2026-05-04 12:51 | 61.84822 | 24.75039 | 964 ft | 86 kts | 191° |
| 2026-05-04 12:51 | 61.84261 | 24.75465 | 1058 ft | 98 kts | 141° |
| 2026-05-04 12:51 | 61.84073 | 24.76912 | 1122 ft | 109 kts | 94° |
| 2026-05-04 12:51 | 61.84089 | 24.78591 | 1061 ft | 114 kts | 91° |
| 2026-05-04 12:52 | 61.84147 | 24.80351 | 962 ft | 126 kts | 86° |
| 2026-05-04 12:52 | 61.84251 | 24.81982 | 955 ft | 100 kts | 85° |
| 2026-05-04 12:52 | 61.84377 | 24.83416 | 830 ft | 102 kts | 80° |
| 2026-05-04 12:52 | 61.84672 | 24.84690 | 917 ft | 94 kts | 28° |
| 2026-05-04 12:53 | 61.85274 | 24.84543 | 907 ft | 91 kts | 324° |
| 2026-05-04 12:53 | 61.85673 | 24.83657 | 896 ft | 78 kts | 283° |
| 2026-05-04 12:53 | 61.85795 | 24.82661 | 943 ft | 65 kts | 263° |
| 2026-05-04 12:53 | 61.85709 | 24.81737 | 633 ft | 66 kts | 255° |
| 2026-05-04 12:54 | 61.85675 | 24.80794 | 513 ft | 60 kts | 259° |
| 2026-05-04 12:54 | 61.85652 | 24.79997 | 486 ft | 48 kts | 265° |
| 2026-05-04 12:54 | 61.85636 | 24.79265 | 574 ft | 56 kts | 259° |
| 2026-05-04 12:54 | 61.85606 | 24.78347 | 720 ft | 68 kts | 259° |
| 2026-05-04 12:55 | 61.85578 | 24.77217 | 743 ft | 92 kts | 259° |
| 2026-05-04 12:55 | 61.85491 | 24.75863 | 737 ft | 97 kts | 258° |
| 2026-05-04 12:55 | 61.85168 | 24.74825 | 947 ft | 87 kts | 194° |
| 2026-05-04 12:55 | 61.84574 | 24.75138 | 1056 ft | 99 kts | 143° |
| 2026-05-04 12:56 | 61.84171 | 24.76448 | 1092 ft | 112 kts | 107° |
| 2026-05-04 12:56 | 61.84157 | 24.78190 | 1029 ft | 126 kts | 89° |
| 2026-05-04 12:56 | 61.84171 | 24.80212 | 850 ft | 141 kts | 91° |
| 2026-05-04 12:56 | 61.84188 | 24.82029 | 787 ft | 115 kts | 90° |
| 2026-05-04 12:57 | 61.84193 | 24.82379 | 765 ft | 112 kts | 92° |
| 2026-05-04 12:57 | 61.84199 | 24.82672 | 754 ft | 110 kts | 91° |
| 2026-05-04 12:57 | 61.84300 | 24.84251 | 683 ft | 98 kts | 67° |
| 2026-05-04 12:57 | 61.84739 | 24.84979 | 724 ft | 80 kts | 2° |
| 2026-05-04 12:58 | 61.85247 | 24.84584 | 741 ft | 85 kts | 314° |
| 2026-05-04 12:58 | 61.85635 | 24.83561 | 759 ft | 89 kts | 291° |
| 2026-05-04 12:58 | 61.85718 | 24.82366 | 692 ft | 71 kts | 264° |
| 2026-05-04 12:58 | 61.85686 | 24.81442 | 567 ft | 58 kts | 263° |
| 2026-05-04 12:59 | 61.85664 | 24.80601 | 493 ft | 53 kts | 264° |
| 2026-05-04 12:59 | 61.85643 | 24.79823 | 487 ft | 70 kts | 270° |
| 2026-05-04 12:59 | 61.85610 | 24.78703 | 636 ft | 79 kts | 261° |
| 2026-05-04 12:59 | 61.85548 | 24.77489 | 719 ft | 89 kts | 257° |
| 2026-05-04 13:00 | 61.85505 | 24.76191 | 825 ft | 89 kts | 265° |
| 2026-05-04 13:00 | 61.85394 | 24.74879 | 798 ft | 97 kts | 248° |
| 2026-05-04 13:00 | 61.85188 | 24.74093 | 927 ft | 88 kts | 214° |
| 2026-05-04 13:00 | 61.84595 | 24.74323 | 1026 ft | 98 kts | 130° |
| 2026-05-04 13:01 | 61.84381 | 24.76305 | 1103 ft | 111 kts | 102° |
| 2026-05-04 13:01 | 61.84226 | 24.77905 | 1146 ft | 105 kts | 101° |
| 2026-05-04 13:01 | 61.84152 | 24.78972 | 1070 ft | 112 kts | 110° |
| 2026-05-04 13:01 | 61.83832 | 24.80417 | 1226 ft | 105 kts | 117° |
| 2026-05-04 13:02 | 61.83631 | 24.81936 | 1348 ft | 107 kts | 104° |
| 2026-05-04 13:02 | 61.83486 | 24.83497 | 1332 ft | 112 kts | 107° |
| 2026-05-04 13:02 | 61.83336 | 24.85182 | 1251 ft | 120 kts | 104° |
| 2026-05-04 13:02 | 61.83169 | 24.86873 | 1314 ft | 112 kts | 108° |
| 2026-05-04 13:03 | 61.83002 | 24.88505 | 1307 ft | 118 kts | 105° |
| 2026-05-04 13:03 | 61.82924 | 24.90235 | 1249 ft | 113 kts | 89° |
| 2026-05-04 13:03 | 61.83044 | 24.91925 | 1092 ft | 119 kts | 79° |
| 2026-05-04 13:03 | 61.83393 | 24.93336 | 1153 ft | 103 kts | 41° |
| 2026-05-04 13:04 | 61.84034 | 24.93934 | 1139 ft | 100 kts | 354° |
| 2026-05-04 13:04 | 61.84636 | 24.93457 | 1198 ft | 90 kts | 311° |
| 2026-05-04 13:04 | 61.85089 | 24.92486 | 1195 ft | 93 kts | 306° |
| 2026-05-04 13:04 | 61.85462 | 24.91415 | 1291 ft | 88 kts | 290° |
| 2026-05-04 13:05 | 61.85688 | 24.90224 | 1271 ft | 86 kts | 279° |
| 2026-05-04 13:05 | 61.85836 | 24.88990 | 1235 ft | 87 kts | 272° |
| 2026-05-04 13:05 | 61.85880 | 24.87702 | 1206 ft | 90 kts | 265° |
| 2026-05-04 13:05 | 61.85871 | 24.86373 | 1228 ft | 90 kts | 266° |
| 2026-05-04 13:06 | 61.85826 | 24.84969 | 1064 ft | 100 kts | 263° |
| 2026-05-04 13:06 | 61.85769 | 24.83629 | 915 ft | 77 kts | 260° |
| 2026-05-04 13:06 | 61.85732 | 24.82565 | 661 ft | 66 kts | 263° |
| 2026-05-04 13:06 | 61.85699 | 24.81697 | 580 ft | 55 kts | 259° |
| 2026-05-04 13:07 | 61.85677 | 24.80895 | 525 ft | 55 kts | 257° |
| 2026-05-04 13:07 | 61.85652 | 24.80076 | 483 ft | 58 kts | 269° |
| 2026-05-04 13:07 | 61.85630 | 24.79060 | 595 ft | 76 kts | 262° |
| 2026-05-04 13:07 | 61.85591 | 24.77855 | 699 ft | 89 kts | 265° |
| 2026-05-04 13:08 | 61.85587 | 24.76573 | 880 ft | 89 kts | 266° |
| 2026-05-04 13:08 | 61.85623 | 24.75200 | 888 ft | 94 kts | 269° |
| 2026-05-04 13:08 | 61.85661 | 24.73795 | 934 ft | 98 kts | 268° |
| 2026-05-04 13:08 | 61.85364 | 24.72710 | 1107 ft | 89 kts | 211° |
| 2026-05-04 13:09 | 61.84741 | 24.72485 | 1176 ft | 98 kts | 176° |
| 2026-05-04 13:09 | 61.84095 | 24.72938 | 1286 ft | 102 kts | 150° |
| 2026-05-04 13:09 | 61.83616 | 24.73998 | 1443 ft | 101 kts | 121° |
| 2026-05-04 13:09 | 61.83413 | 24.75535 | 1361 ft | 117 kts | 92° |
| 2026-05-04 13:10 | 61.83472 | 24.77335 | 1254 ft | 128 kts | 86° |
| 2026-05-04 13:10 | 61.83582 | 24.79120 | 1161 ft | 118 kts | 85° |
| 2026-05-04 13:10 | 61.83749 | 24.80810 | 1130 ft | 117 kts | 78° |
| 2026-05-04 13:10 | 61.84047 | 24.82277 | 1203 ft | 102 kts | 39° |
| 2026-05-04 13:11 | 61.84566 | 24.82810 | 1016 ft | 72 kts | 9° |
| 2026-05-04 13:11 | 61.85054 | 24.82758 | 829 ft | 75 kts | 325° |
| 2026-05-04 13:11 | 61.85472 | 24.82030 | 667 ft | 74 kts | 307° |
| 2026-05-04 13:11 | 61.85692 | 24.81073 | 537 ft | 66 kts | 265° |
| 2026-05-04 13:12 | 61.85660 | 24.80381 | 489 ft | 13 kts | 265° |
| 2026-05-04 13:12 | 61.85660 | 24.80371 | 489 ft | 0 kts | 265° |
| 2026-05-04 13:16 | 61.85658 | 24.80352 | 489 ft | 13 kts | 262° |
| 2026-05-04 13:16 | 61.85659 | 24.79789 | 568 ft | 46 kts | 285° |
| 2026-05-04 13:16 | 61.85813 | 24.78975 | 634 ft | 72 kts | 283° |
| 2026-05-04 13:17 | 61.86046 | 24.77908 | 766 ft | 89 kts | 292° |
| 2026-05-04 13:17 | 61.86300 | 24.76670 | 930 ft | 96 kts | 287° |
| 2026-05-04 13:17 | 61.86488 | 24.75261 | 1139 ft | 100 kts | 275° |
| 2026-05-04 13:17 | 61.86799 | 24.73847 | 1138 ft | 115 kts | 312° |
| 2026-05-04 13:18 | 61.87354 | 24.73084 | 1608 ft | 85 kts | 321° |
| 2026-05-04 13:18 | 61.87983 | 24.72410 | 1687 ft | 104 kts | 330° |
| 2026-05-04 13:18 | 61.88628 | 24.71614 | 1853 ft | 111 kts | 321° |
| 2026-05-04 13:18 | 61.89124 | 24.70826 | 2221 ft | 98 kts | 310° |
| 2026-05-04 13:19 | 61.89683 | 24.69796 | 2317 ft | 111 kts | 316° |
| 2026-05-04 13:19 | 61.90199 | 24.68686 | 2562 ft | 105 kts | 300° |
| 2026-05-04 13:19 | 61.90685 | 24.67406 | 2640 ft | 115 kts | 302° |
| 2026-05-04 13:19 | 61.91186 | 24.66076 | 2797 ft | 115 kts | 302° |
| 2026-05-04 13:20 | 61.91686 | 24.64736 | 2933 ft | 117 kts | 301° |
| 2026-05-04 13:20 | 61.92163 | 24.63330 | 3041 ft | 116 kts | 295° |
| 2026-05-04 13:20 | 61.92522 | 24.61819 | 3177 ft | 112 kts | 286° |
| 2026-05-04 13:20 | 61.92776 | 24.60274 | 3260 ft | 115 kts | 283° |
| 2026-05-04 13:21 | 61.93021 | 24.58383 | 2586 ft | 151 kts | 280° |
| 2026-05-04 13:21 | 61.93206 | 24.56172 | 2234 ft | 149 kts | 274° |
| 2026-05-04 13:21 | 61.93240 | 24.54045 | 2128 ft | 134 kts | 261° |
| 2026-05-04 13:21 | 61.93109 | 24.52064 | 1927 ft | 140 kts | 260° |
| 2026-05-04 13:22 | 61.93085 | 24.49966 | 1593 ft | 149 kts | 281° |
| 2026-05-04 13:22 | 61.93298 | 24.48827 | 1574 ft | 112 kts | 323° |
| 2026-05-04 13:22 | 61.94104 | 24.47854 | 1415 ft | 135 kts | 321° |
| 2026-05-04 13:22 | 61.94871 | 24.46652 | 1414 ft | 128 kts | 317° |
| 2026-05-04 13:23 | 61.95135 | 24.45101 | 1501 ft | 122 kts | 276° |
| 2026-05-04 13:23 | 61.95316 | 24.43393 | 1638 ft | 112 kts | 277° |
| 2026-05-04 13:23 | 61.95466 | 24.41560 | 1530 ft | 132 kts | 277° |
| 2026-05-04 13:23 | 61.95635 | 24.39650 | 1613 ft | 129 kts | 275° |
| 2026-05-04 13:24 | 61.95914 | 24.37775 | 1539 ft | 134 kts | 286° |
| 2026-05-04 13:24 | 61.96290 | 24.35895 | 1365 ft | 141 kts | 290° |
| 2026-05-04 13:24 | 61.96681 | 24.33974 | 1178 ft | 143 kts | 290° |
| 2026-05-04 13:25 | 61.97536 | 24.30287 | 1194 ft | 133 kts | 295° |
| 2026-05-04 13:25 | 61.97852 | 24.28614 | 1544 ft | 65 kts | 252° |
| 2026-05-04 13:25 | 61.97704 | 24.27516 | 1839 ft | 99 kts | 246° |
| 2026-05-04 13:25 | 61.97540 | 24.25852 | 1669 ft | 130 kts | 271° |
| 2026-05-04 13:26 | 61.97662 | 24.23965 | 1791 ft | 120 kts | 274° |
| 2026-05-04 13:26 | 61.97780 | 24.22185 | 1839 ft | 125 kts | 272° |
| 2026-05-04 13:26 | 61.97863 | 24.20280 | 1790 ft | 130 kts | 271° |
| 2026-05-04 13:26 | 61.97929 | 24.18347 | 1740 ft | 130 kts | 265° |
| 2026-05-04 13:27 | 61.97798 | 24.16407 | 1574 ft | 135 kts | 253° |
| 2026-05-04 13:27 | 61.97502 | 24.14647 | 1689 ft | 123 kts | 240° |
| 2026-05-04 13:27 | 61.96966 | 24.13189 | 1582 ft | 127 kts | 227° |
| 2026-05-04 13:27 | 61.96366 | 24.11732 | 1426 ft | 134 kts | 229° |
| 2026-05-04 13:28 | 61.95776 | 24.10196 | 1326 ft | 132 kts | 233° |
| 2026-05-04 13:28 | 61.95442 | 24.08378 | 1048 ft | 140 kts | 260° |
| 2026-05-04 13:28 | 61.95571 | 24.06305 | 839 ft | 143 kts | 284° |
| 2026-05-04 13:28 | 61.95935 | 24.05846 | 810 ft | 115 kts | 216° |
| 2026-05-04 13:29 | 61.96119 | 24.04214 | 768 ft | 126 kts | 285° |
| 2026-05-04 13:29 | 61.96370 | 24.02474 | 806 ft | 123 kts | 281° |
| 2026-05-04 13:29 | 61.96601 | 24.00650 | 725 ft | 131 kts | 279° |
| 2026-05-04 13:29 | 61.96689 | 23.98758 | 644 ft | 124 kts | 270° |
| 2026-05-04 13:30 | 61.96845 | 23.96957 | 750 ft | 120 kts | 279° |
| 2026-05-04 13:30 | 61.97006 | 23.95279 | 768 ft | 122 kts | 288° |
| 2026-05-04 13:30 | 61.97598 | 23.93930 | 836 ft | 120 kts | 316° |
| 2026-05-04 13:30 | 61.98334 | 23.93027 | 879 ft | 128 kts | 328° |
| 2026-05-04 13:31 | 61.99177 | 23.92308 | 859 ft | 127 kts | 333° |
| 2026-05-04 13:31 | 61.99752 | 23.91752 | 1390 ft | 94 kts | 316° |
| 2026-05-04 13:31 | 62.00298 | 23.90592 | 1190 ft | 125 kts | 305° |
| 2026-05-04 13:31 | 62.00359 | 23.89198 | 1326 ft | 109 kts | 245° |
| 2026-05-04 13:32 | 62.00080 | 23.87567 | 1256 ft | 120 kts | 248° |
| 2026-05-04 13:32 | 61.99821 | 23.85910 | 1392 ft | 114 kts | 249° |
| 2026-05-04 13:32 | 61.99621 | 23.84227 | 1332 ft | 121 kts | 258° |
| 2026-05-04 13:32 | 61.99456 | 23.82489 | 1387 ft | 116 kts | 250° |
| 2026-05-04 13:33 | 61.99163 | 23.80861 | 1431 ft | 118 kts | 248° |
| 2026-05-04 13:33 | 61.99049 | 23.79256 | 1700 ft | 108 kts | 268° |
| 2026-05-04 13:33 | 61.99049 | 23.77600 | 1771 ft | 116 kts | 264° |
| 2026-05-04 13:33 | 61.99015 | 23.75865 | 1771 ft | 125 kts | 264° |
| 2026-05-04 13:34 | 61.98876 | 23.74009 | 1677 ft | 128 kts | 247° |
| 2026-05-04 13:34 | 61.98529 | 23.72321 | 1654 ft | 124 kts | 239° |
| 2026-05-04 13:34 | 61.98083 | 23.70709 | 1622 ft | 121 kts | 237° |
| 2026-05-04 13:34 | 61.97800 | 23.69038 | 1535 ft | 132 kts | 263° |
| 2026-05-04 13:35 | 61.97925 | 23.67022 | 1334 ft | 135 kts | 282° |
| 2026-05-04 13:35 | 61.98424 | 23.63285 | 1123 ft | 140 kts | 278° |
| 2026-05-04 13:35 | 61.98564 | 23.61340 | 1134 ft | 130 kts | 275° |
| 2026-05-04 13:36 | 61.98849 | 23.59734 | 1258 ft | 124 kts | 288° |
| 2026-05-04 13:36 | 61.99103 | 23.57959 | 1225 ft | 128 kts | 271° |
| 2026-05-04 13:36 | 61.99096 | 23.56025 | 1190 ft | 117 kts | 274° |
| 2026-05-04 13:36 | 61.99189 | 23.54309 | 1399 ft | 118 kts | 282° |
| 2026-05-04 13:37 | 61.99571 | 23.52572 | 1231 ft | 136 kts | 298° |
| 2026-05-04 13:37 | 62.00091 | 23.50993 | 1360 ft | 125 kts | 298° |
| 2026-05-04 13:37 | 62.00820 | 23.49683 | 1147 ft | 146 kts | 317° |
| 2026-05-04 13:37 | 62.01343 | 23.48797 | 1097 ft | 144 kts | 314° |
| 2026-05-04 13:38 | 62.01525 | 23.46842 | 1230 ft | 114 kts | 269° |
| 2026-05-04 13:38 | 62.01699 | 23.45103 | 1184 ft | 122 kts | 271° |
| 2026-05-04 13:38 | 62.01805 | 23.43238 | 1093 ft | 127 kts | 269° |
| 2026-05-04 13:38 | 62.01766 | 23.41404 | 1088 ft | 121 kts | 252° |
| 2026-05-04 13:39 | 62.01514 | 23.39676 | 1061 ft | 121 kts | 248° |
| 2026-05-04 13:39 | 62.01233 | 23.37975 | 995 ft | 125 kts | 248° |
| 2026-05-04 13:39 | 62.00967 | 23.36256 | 1043 ft | 120 kts | 255° |
| 2026-05-04 13:39 | 62.00862 | 23.34451 | 968 ft | 122 kts | 260° |
| 2026-05-04 13:40 | 62.00774 | 23.32651 | 945 ft | 120 kts | 257° |
| 2026-05-04 13:40 | 62.00645 | 23.30931 | 989 ft | 111 kts | 258° |
| 2026-05-04 13:40 | 62.00803 | 23.29232 | 889 ft | 118 kts | 282° |
| 2026-05-04 13:40 | 62.01048 | 23.27558 | 921 ft | 120 kts | 284° |
| 2026-05-04 13:41 | 62.01320 | 23.25890 | 973 ft | 117 kts | 279° |
| 2026-05-04 13:41 | 62.01383 | 23.24298 | 1103 ft | 106 kts | 254° |
| 2026-05-04 13:41 | 62.01130 | 23.22755 | 1008 ft | 113 kts | 244° |
| 2026-05-04 13:42 | 62.00611 | 23.19518 | 964 ft | 118 kts | 253° |
| 2026-05-04 13:42 | 62.00488 | 23.17795 | 965 ft | 120 kts | 265° |
| 2026-05-04 13:42 | 62.00436 | 23.16136 | 1015 ft | 116 kts | 258° |
| 2026-05-04 13:42 | 62.00318 | 23.14398 | 970 ft | 120 kts | 255° |
| 2026-05-04 13:43 | 62.00181 | 23.13128 | 890 ft | 122 kts | 254° |
| 2026-05-04 13:43 | 62.00112 | 23.12434 | 825 ft | 125 kts | 257° |
| 2026-05-04 13:43 | 61.99977 | 23.10708 | 994 ft | 112 kts | 260° |
| 2026-05-04 13:43 | 61.99916 | 23.08998 | 1027 ft | 118 kts | 262° |
| 2026-05-04 13:44 | 62.00030 | 23.07247 | 1044 ft | 122 kts | 285° |
| 2026-05-04 13:44 | 62.00421 | 23.05663 | 1162 ft | 124 kts | 298° |
| 2026-05-04 13:44 | 62.00753 | 23.04067 | 1320 ft | 118 kts | 282° |
| 2026-05-04 13:44 | 62.00955 | 23.02359 | 1299 ft | 121 kts | 275° |
| 2026-05-04 13:45 | 62.01059 | 23.00578 | 1245 ft | 123 kts | 262° |
| 2026-05-04 13:45 | 62.00433 | 22.99629 | 1206 ft | 123 kts | 163° |
| 2026-05-04 13:45 | 62.00466 | 23.01171 | 1566 ft | 125 kts | 49° |
| 2026-05-04 13:45 | 62.01176 | 23.01144 | 1485 ft | 125 kts | 307° |
| 2026-05-04 13:46 | 62.01202 | 22.99699 | 1347 ft | 114 kts | 205° |
| 2026-05-04 13:46 | 62.00376 | 22.99477 | 1195 ft | 122 kts | 181° |
| 2026-05-04 13:46 | 61.99510 | 22.99769 | 1142 ft | 129 kts | 172° |
| 2026-05-04 13:46 | 61.98637 | 23.00218 | 1113 ft | 131 kts | 167° |
| 2026-05-04 13:47 | 61.98116 | 23.00855 | 1165 ft | 132 kts | 136° |
| 2026-05-04 13:47 | 61.97905 | 23.03308 | 1152 ft | 137 kts | 58° |
| 2026-05-04 13:47 | 61.98257 | 23.04421 | 1214 ft | 138 kts | 59° |
| 2026-05-04 13:47 | 61.98703 | 23.07025 | 1234 ft | 142 kts | 77° |
| 2026-05-04 13:48 | 61.98952 | 23.09041 | 1268 ft | 141 kts | 81° |
| 2026-05-04 13:48 | 61.99168 | 23.11022 | 1408 ft | 135 kts | 77° |
| 2026-05-04 13:48 | 61.99306 | 23.12370 | 1304 ft | 145 kts | 83° |
| 2026-05-04 13:48 | 61.99397 | 23.14487 | 1332 ft | 140 kts | 86° |
| 2026-05-04 13:49 | 61.99689 | 23.16426 | 1354 ft | 143 kts | 67° |
| 2026-05-04 13:49 | 62.00096 | 23.18407 | 1335 ft | 143 kts | 69° |
| 2026-05-04 13:49 | 62.00384 | 23.20413 | 1378 ft | 143 kts | 79° |
| 2026-05-04 13:49 | 62.00604 | 23.22475 | 1321 ft | 144 kts | 79° |
| 2026-05-04 13:50 | 62.00764 | 23.24602 | 1301 ft | 143 kts | 86° |
| 2026-05-04 13:50 | 62.00838 | 23.26691 | 1359 ft | 140 kts | 88° |
| 2026-05-04 13:50 | 62.00930 | 23.28768 | 1367 ft | 138 kts | 80° |
| 2026-05-04 13:50 | 62.01296 | 23.30617 | 1481 ft | 137 kts | 58° |
| 2026-05-04 13:51 | 62.01806 | 23.32411 | 1360 ft | 146 kts | 59° |
| 2026-05-04 13:51 | 62.02382 | 23.34213 | 1279 ft | 147 kts | 53° |
| 2026-05-04 13:51 | 62.03074 | 23.35773 | 1240 ft | 147 kts | 40° |
| 2026-05-04 13:51 | 62.03836 | 23.37206 | 1274 ft | 142 kts | 36° |
| 2026-05-04 13:52 | 62.05211 | 23.40265 | 1284 ft | 143 kts | 50° |
| 2026-05-04 13:52 | 62.05915 | 23.41776 | 1312 ft | 146 kts | 43° |
| 2026-05-04 13:52 | 62.06619 | 23.43290 | 1374 ft | 146 kts | 46° |
| 2026-05-04 13:53 | 62.07380 | 23.44724 | 1455 ft | 147 kts | 40° |
| 2026-05-04 13:53 | 62.08136 | 23.46183 | 1486 ft | 146 kts | 43° |
| 2026-05-04 13:53 | 62.08872 | 23.47703 | 1454 ft | 150 kts | 46° |
| 2026-05-04 13:54 | 62.10242 | 23.51041 | 1542 ft | 146 kts | 49° |
| 2026-05-04 13:54 | 62.10800 | 23.52695 | 1601 ft | 130 kts | 59° |
| 2026-05-04 13:54 | 62.11174 | 23.56476 | 1560 ft | 129 kts | 87° |
| 2026-05-04 13:55 | 62.11334 | 23.58386 | 1636 ft | 134 kts | 85° |
| 2026-05-04 13:55 | 62.11668 | 23.62472 | 1718 ft | 133 kts | 88° |
| 2026-05-04 13:55 | 62.11777 | 23.64470 | 1659 ft | 139 kts | 89° |
| 2026-05-04 13:56 | 62.11878 | 23.66533 | 1701 ft | 136 kts | 90° |
| 2026-05-04 13:56 | 62.11940 | 23.68636 | 1611 ft | 144 kts | 83° |
| 2026-05-04 13:56 | 62.12841 | 23.72267 | 1816 ft | 136 kts | 45° |
| 2026-05-04 13:57 | 62.13531 | 23.73639 | 1868 ft | 139 kts | 39° |
| 2026-05-04 13:57 | 62.14297 | 23.74976 | 1822 ft | 143 kts | 38° |
| 2026-05-04 13:58 | 62.16855 | 23.78787 | 1627 ft | 152 kts | 41° |
| 2026-05-04 13:58 | 62.18252 | 23.82241 | 1258 ft | 158 kts | 61° |
| 2026-05-04 13:58 | 62.18631 | 23.84393 | 1226 ft | 150 kts | 78° |
| 2026-05-04 13:59 | 62.18819 | 23.86517 | 1267 ft | 143 kts | 82° |
| 2026-05-04 13:59 | 62.18931 | 23.88649 | 1162 ft | 148 kts | 92° |
| 2026-05-04 13:59 | 62.18882 | 23.92388 | 1137 ft | 106 kts | 95° |
| 2026-05-04 14:00 | 62.18803 | 23.94127 | 1145 ft | 127 kts | 102° |
| 2026-05-04 14:00 | 62.18539 | 23.98014 | 1302 ft | 140 kts | 103° |
| 2026-05-04 14:00 | 62.18296 | 23.99977 | 1362 ft | 138 kts | 99° |
| 2026-05-04 14:01 | 62.18263 | 24.02020 | 1441 ft | 134 kts | 95° |
| 2026-05-04 14:01 | 62.18271 | 24.04076 | 1405 ft | 142 kts | 95° |
| 2026-05-04 14:01 | 62.17739 | 24.08115 | 1345 ft | 143 kts | 114° |
| 2026-05-04 14:02 | 62.17527 | 24.10197 | 1317 ft | 147 kts | 99° |
| 2026-05-04 14:02 | 62.17484 | 24.12402 | 1221 ft | 149 kts | 96° |
| 2026-05-04 14:02 | 62.17433 | 24.14603 | 1191 ft | 145 kts | 97° |
| 2026-05-04 14:02 | 62.17360 | 24.16706 | 1264 ft | 139 kts | 96° |
| 2026-05-04 14:03 | 62.17241 | 24.18781 | 1196 ft | 142 kts | 103° |
| 2026-05-04 14:03 | 62.17063 | 24.20868 | 1110 ft | 145 kts | 102° |
| 2026-05-04 14:03 | 62.16914 | 24.23023 | 986 ft | 145 kts | 98° |
| 2026-05-04 14:03 | 62.16813 | 24.25041 | 1192 ft | 134 kts | 96° |
| 2026-05-04 14:04 | 62.17497 | 24.28962 | 1032 ft | 147 kts | 64° |
| 2026-05-04 14:04 | 62.17979 | 24.30863 | 983 ft | 144 kts | 66° |
| 2026-05-04 14:04 | 62.18378 | 24.32847 | 840 ft | 148 kts | 73° |
| 2026-05-04 14:05 | 62.18818 | 24.37010 | 846 ft | 142 kts | 83° |
| 2026-05-04 14:05 | 62.18950 | 24.39116 | 751 ft | 144 kts | 85° |
| 2026-05-04 14:05 | 62.19025 | 24.41235 | 795 ft | 140 kts | 87° |
| 2026-05-04 14:06 | 62.19105 | 24.43284 | 895 ft | 139 kts | 86° |
| 2026-05-04 14:06 | 62.19190 | 24.45322 | 1035 ft | 133 kts | 92° |
| 2026-05-04 14:06 | 62.19379 | 24.47305 | 1066 ft | 140 kts | 73° |
| 2026-05-04 14:06 | 62.19681 | 24.49304 | 1110 ft | 140 kts | 72° |
| 2026-05-04 14:07 | 62.20007 | 24.51240 | 1253 ft | 137 kts | 72° |
| 2026-05-04 14:07 | 62.20289 | 24.53137 | 1308 ft | 139 kts | 77° |
| 2026-05-04 14:07 | 62.20565 | 24.55173 | 1318 ft | 145 kts | 77° |
| 2026-05-04 14:07 | 62.20811 | 24.57268 | 1292 ft | 145 kts | 81° |
| 2026-05-04 14:08 | 62.21042 | 24.59390 | 1342 ft | 143 kts | 72° |
| 2026-05-04 14:08 | 62.21535 | 24.61233 | 1332 ft | 147 kts | 56° |
| 2026-05-04 14:08 | 62.22104 | 24.63056 | 1354 ft | 147 kts | 57° |
| 2026-05-04 14:08 | 62.22700 | 24.64818 | 1392 ft | 146 kts | 53° |
| 2026-05-04 14:09 | 62.23791 | 24.68559 | 1165 ft | 153 kts | 79° |
| 2026-05-04 14:09 | 62.24007 | 24.70707 | 1167 ft | 145 kts | 80° |
| 2026-05-04 14:10 | 62.24334 | 24.74762 | 1383 ft | 137 kts | 80° |
| 2026-05-04 14:10 | 62.24756 | 24.76559 | 1461 ft | 139 kts | 41° |
| 2026-05-04 14:10 | 62.25608 | 24.77297 | 1633 ft | 120 kts | 335° |
| 2026-05-04 14:10 | 62.26022 | 24.75830 | 1555 ft | 127 kts | 276° |
| 2026-05-04 14:11 | 62.25990 | 24.73869 | 1305 ft | 137 kts | 262° |
| 2026-05-04 14:11 | 62.25051 | 24.73328 | 1311 ft | 143 kts | 115° |
| 2026-05-04 14:11 | 62.24862 | 24.75415 | 1289 ft | 142 kts | 102° |
| 2026-05-04 14:12 | 62.24702 | 24.77446 | 1289 ft | 142 kts | 102° |
| 2026-05-04 14:12 | 62.24542 | 24.79564 | 1193 ft | 143 kts | 108° |
| 2026-05-04 14:12 | 62.24298 | 24.83300 | 1545 ft | 123 kts | 104° |
| 2026-05-04 14:13 | 62.24041 | 24.85095 | 1568 ft | 123 kts | 113° |
| 2026-05-04 14:13 | 62.23810 | 24.86600 | 1728 ft | 106 kts | 123° |
| 2026-05-04 14:13 | 62.23611 | 24.88150 | 1598 ft | 134 kts | 90° |
| 2026-05-04 14:13 | 62.23016 | 24.89390 | 1580 ft | 121 kts | 153° |
| 2026-05-04 14:14 | 62.23379 | 24.89753 | 1113 ft | 121 kts | 12° |
| 2026-05-04 14:14 | 62.23218 | 24.90718 | 914 ft | 132 kts | 118° |
| 2026-05-04 14:14 | 62.23174 | 24.92703 | 976 ft | 134 kts | 83° |
| 2026-05-04 14:15 | 62.23150 | 24.96455 | 1267 ft | 114 kts | 118° |
| 2026-05-04 14:15 | 62.22872 | 24.97165 | 510 ft | 7 kts | 300° |
| 2026-05-04 14:16 | 62.22491 | 24.97709 | 620 ft | 56 kts | 142° |
| 2026-05-04 14:16 | 62.22449 | 24.98635 | 726 ft | 81 kts | 69° |
| 2026-05-04 14:17 | 62.22989 | 25.01409 | 866 ft | 108 kts | 96° |
| 2026-05-04 14:17 | 62.22668 | 25.02684 | 1034 ft | 90 kts | 144° |
| 2026-05-04 14:17 | 62.21949 | 25.05264 | 1145 ft | 120 kts | 126° |
| 2026-05-04 14:18 | 62.21615 | 25.06891 | 1364 ft | 120 kts | 108° |
| 2026-05-04 14:18 | 62.21033 | 25.10435 | 1553 ft | 133 kts | 114° |
| 2026-05-04 14:19 | 62.20694 | 25.14474 | 1554 ft | 143 kts | 91° |
| 2026-05-04 14:19 | 62.20818 | 25.16622 | 1473 ft | 151 kts | 85° |
| 2026-05-04 14:19 | 62.20959 | 25.18816 | 1482 ft | 149 kts | 89° |
| 2026-05-04 14:19 | 62.20869 | 25.21073 | 1447 ft | 146 kts | 99° |
| 2026-05-04 14:20 | 62.20791 | 25.23211 | 1549 ft | 138 kts | 99° |
| 2026-05-04 14:20 | 62.20782 | 25.25219 | 1617 ft | 141 kts | 85° |
| 2026-05-04 14:20 | 62.20952 | 25.27307 | 1656 ft | 144 kts | 83° |
| 2026-05-04 14:21 | 62.21419 | 25.31514 | 1772 ft | 143 kts | 71° |
| 2026-05-04 14:21 | 62.21779 | 25.33451 | 1980 ft | 135 kts | 68° |
| 2026-05-04 14:21 | 62.22152 | 25.35378 | 1997 ft | 141 kts | 74° |
| 2026-05-04 14:21 | 62.22475 | 25.37418 | 1938 ft | 149 kts | 80° |
| 2026-05-04 14:22 | 62.22731 | 25.39639 | 1724 ft | 161 kts | 75° |
| 2026-05-04 14:22 | 62.23057 | 25.41955 | 1464 ft | 163 kts | 76° |
| 2026-05-04 14:22 | 62.23381 | 25.44287 | 1263 ft | 157 kts | 76° |
| 2026-05-04 14:22 | 62.23670 | 25.46466 | 1156 ft | 150 kts | 77° |
| 2026-05-04 14:23 | 62.24133 | 25.50616 | 1191 ft | 144 kts | 81° |
| 2026-05-04 14:23 | 62.24268 | 25.52759 | 1208 ft | 140 kts | 86° |
| 2026-05-04 14:23 | 62.24376 | 25.54837 | 1258 ft | 139 kts | 88° |
| 2026-05-04 14:24 | 62.24481 | 25.56916 | 1253 ft | 141 kts | 85° |
| 2026-05-04 14:24 | 62.24639 | 25.58890 | 1207 ft | 130 kts | 79° |
| 2026-05-04 14:24 | 62.24835 | 25.60731 | 1177 ft | 125 kts | 76° |
| 2026-05-04 14:24 | 62.25075 | 25.62496 | 1155 ft | 123 kts | 75° |
| 2026-05-04 14:25 | 62.25390 | 25.64194 | 1177 ft | 121 kts | 64° |
| 2026-05-04 14:25 | 62.26306 | 25.67268 | 1129 ft | 123 kts | 51° |
| 2026-05-04 14:25 | 62.26886 | 25.68650 | 1066 ft | 127 kts | 45° |
| 2026-05-04 14:26 | 62.27492 | 25.70030 | 1046 ft | 126 kts | 46° |
| 2026-05-04 14:26 | 62.28114 | 25.71324 | 1052 ft | 125 kts | 42° |
| 2026-05-04 14:26 | 62.28738 | 25.72574 | 1124 ft | 118 kts | 42° |
| 2026-05-04 14:26 | 62.29371 | 25.73795 | 1107 ft | 126 kts | 40° |
| 2026-05-04 14:27 | 62.30014 | 25.75007 | 1189 ft | 119 kts | 37° |
| 2026-05-04 14:27 | 62.30727 | 25.76146 | 1011 ft | 136 kts | 36° |
| 2026-05-04 14:27 | 62.31488 | 25.77355 | 970 ft | 127 kts | 32° |
| 2026-05-04 14:27 | 62.32236 | 25.78208 | 1056 ft | 119 kts | 23° |
| 2026-05-04 14:28 | 62.33028 | 25.78702 | 1072 ft | 117 kts | 7° |
| 2026-05-04 14:28 | 62.33846 | 25.78973 | 1038 ft | 124 kts | 5° |
| 2026-05-04 14:28 | 62.34624 | 25.78868 | 1112 ft | 108 kts | 336° |
| 2026-05-04 14:28 | 62.35297 | 25.78191 | 1088 ft | 107 kts | 319° |
| 2026-05-04 14:29 | 62.36334 | 25.76029 | 918 ft | 99 kts | 311° |
| 2026-05-04 14:29 | 62.37232 | 25.74115 | 844 ft | 62 kts | 284° |
| 2026-05-04 14:30 | 62.37454 | 25.73411 | 713 ft | 57 kts | 310° |
| 2026-05-04 14:30 | 62.37743 | 25.72804 | 655 ft | 60 kts | 310° |
| 2026-05-04 14:30 | 62.38293 | 25.71555 | 643 ft | 57 kts | 309° |
| 2026-05-04 14:31 | 62.38563 | 25.70921 | 692 ft | 58 kts | 306° |
| 2026-05-04 14:31 | 62.39081 | 25.69565 | 729 ft | 56 kts | 301° |
| 2026-05-04 14:32 | 62.39560 | 25.68407 | 762 ft | 56 kts | 262° |
| 2026-05-04 14:32 | 62.39235 | 25.68267 | 860 ft | 75 kts | 140° |
| 2026-05-04 14:32 | 62.38774 | 25.69029 | 832 ft | 83 kts | 154° |
| 2026-05-04 14:32 | 62.38206 | 25.69169 | 798 ft | 90 kts | 204° |
| 2026-05-04 14:33 | 62.37775 | 25.68334 | 856 ft | 96 kts | 271° |
| 2026-05-04 14:33 | 62.38331 | 25.68140 | 931 ft | 116 kts | 58° |
| 2026-05-04 14:33 | 62.38324 | 25.69833 | 1167 ft | 108 kts | 75° |
| 2026-05-04 14:33 | 62.38899 | 25.70149 | 726 ft | 100 kts | 319° |
| 2026-05-04 14:34 | 62.39324 | 25.69234 | 461 ft | 68 kts | 314° |
| 2026-05-04 14:34 | 62.39557 | 25.68672 | 462 ft | 39 kts | 313° |
| 2026-05-04 14:34 | 62.39665 | 25.68414 | 462 ft | 33 kts | 313° |
| 2026-05-04 14:34 | 62.39803 | 25.68116 | 468 ft | 24 kts | 312° |
| 2026-05-04 14:35 | 62.39900 | 25.67882 | 470 ft | 20 kts | 312° |
| 2026-05-04 14:35 | 62.39987 | 25.67686 | 468 ft | 17 kts | 313° |
| 2026-05-04 14:35 | 62.40063 | 25.67511 | 470 ft | 13 kts | 313° |
| 2026-05-04 14:35 | 62.40057 | 25.67383 | 472 ft | 7 kts | 224° |
| 2026-05-04 14:36 | 62.40029 | 25.67329 | 473 ft | 4 kts | 223° |
| 2026-05-04 14:36 | 62.40012 | 25.67295 | 472 ft | 0 kts | 223° |
| 2026-05-04 14:36 | 62.40011 | 25.67294 | 472 ft | 1 kts | 222° |
| 2026-05-04 14:36 | 62.39979 | 25.67202 | 471 ft | 10 kts | 282° |
| 2026-05-04 14:37 | 62.40017 | 25.67096 | 471 ft | 9 kts | 316° |
| 2026-05-04 14:37 | 62.40058 | 25.67004 | 473 ft | 11 kts | 314° |
| 2026-05-04 14:37 | 62.40149 | 25.66804 | 474 ft | 0 kts | 311° |
| 2026-05-04 14:37 | 62.40192 | 25.66701 | 475 ft | 11 kts | 317° |
| 2026-05-04 14:38 | 62.40234 | 25.66611 | 473 ft | 7 kts | 313° |
| 2026-05-04 14:38 | 62.40330 | 25.66397 | 473 ft | 21 kts | 314° |
| 2026-05-04 14:38 | 62.40407 | 25.66218 | 475 ft | 6 kts | 285° |
| 2026-05-04 14:38 | 62.40366 | 25.66104 | 470 ft | 14 kts | 221° |
| 2026-05-04 14:39 | 62.40288 | 25.65921 | 460 ft | 14 kts | 250° |
| 2026-05-04 14:39 | 62.40307 | 25.65751 | 461 ft | 9 kts | 284° |
| 2026-05-04 14:39 | 62.40316 | 25.65625 | 463 ft | 1 kts | 219° |
| 2026-05-04 14:40 | 62.40219 | 25.65599 | 463 ft | 12 kts | 230° |
| 2026-05-04 14:40 | 62.40202 | 25.65586 | 463 ft | 1 kts | 149° |
| 2026-05-04 14:40 | 62.40187 | 25.65612 | 463 ft | 2 kts | 125° |
| 2026-05-04 14:40 | 62.40189 | 25.65639 | 462 ft | 3 kts | 41° |
| 2026-05-04 14:41 | 62.40201 | 25.65664 | 461 ft | 0 kts | 59° |